createdAt,value
2023-05-06T00:00:22.511Z,7.09
2023-05-06T00:03:10.517Z,6.95
2023-05-06T00:05:38.532Z,6.94
2023-05-06T00:08:06.738Z,6.95
2023-05-06T00:10:34.654Z,6.86
2023-05-06T00:13:02.641Z,6.87
2023-05-06T00:15:32.049Z,6.76
2023-05-06T00:18:01.305Z,6.63
2023-05-06T00:20:29.492Z,6.68
2023-05-06T00:22:57.802Z,6.53
2023-05-06T00:25:25.617Z,6.51
2023-05-06T00:27:54.001Z,6.55
2023-05-06T00:30:21.752Z,6.56
2023-05-06T00:32:49.806Z,6.44
2023-05-06T00:35:17.510Z,6.36
2023-05-06T00:37:58.737Z,6.39
2023-05-06T00:40:26.445Z,6.35
2023-05-06T00:42:54.392Z,6.28
2023-05-06T00:45:22.183Z,6.23
2023-05-06T00:47:50.276Z,6.31
2023-05-06T00:50:18.707Z,6.19
2023-05-06T00:52:47.370Z,6.13
2023-05-06T00:55:15.886Z,6.10
2023-05-06T00:57:44.325Z,5.98
2023-05-06T01:00:12.609Z,5.98
2023-05-06T01:02:46.961Z,5.90
2023-05-06T01:05:17.894Z,6.02
2023-05-06T01:08:11.613Z,5.92
2023-05-06T01:10:45.140Z,5.93
2023-05-06T01:13:30.885Z,5.77
2023-05-06T01:16:01.399Z,5.94
2023-05-06T01:18:32.594Z,5.95
2023-05-06T01:21:01.939Z,5.93
2023-05-06T01:23:30.162Z,5.82
2023-05-06T01:25:57.798Z,5.84
2023-05-06T01:28:25.880Z,5.74
2023-05-06T01:30:53.612Z,5.69
2023-05-06T01:33:32.809Z,5.72
2023-05-06T01:36:11.634Z,5.80
2023-05-06T01:38:51.672Z,5.78
2023-05-06T01:41:21.070Z,5.75
2023-05-06T01:43:52.828Z,5.83
2023-05-06T01:46:23.674Z,5.67
2023-05-06T01:48:55.223Z,5.76
2023-05-06T01:51:24.934Z,5.64
2023-05-06T01:53:53.004Z,5.57
2023-05-06T01:56:20.741Z,5.51
2023-05-06T01:58:48.768Z,5.23
2023-05-06T02:01:16.545Z,5.39
2023-05-06T02:03:44.546Z,5.32
2023-05-06T02:06:12.373Z,5.23
2023-05-06T02:08:43.477Z,5.05
2023-05-06T02:11:16.292Z,5.09
2023-05-06T02:13:44.423Z,4.99
2023-05-06T02:16:12.284Z,5.01
2023-05-06T02:18:41.480Z,5.19
2023-05-06T02:21:10.879Z,5.08
2023-05-06T02:23:38.862Z,5.03
2023-05-06T02:26:06.526Z,5.08
2023-05-06T02:28:34.411Z,5.18
2023-05-06T02:31:02.100Z,5.03
2023-05-06T02:33:30.124Z,5.07
2023-05-06T02:35:57.772Z,4.98
2023-05-06T02:38:25.830Z,5.07
2023-05-06T02:40:54.371Z,5.15
2023-05-06T02:43:23.251Z,5.19
2023-05-06T02:45:51.204Z,5.09
2023-05-06T02:48:20.160Z,4.99
2023-05-06T02:50:47.831Z,5.23
2023-05-06T02:53:15.905Z,5.12
2023-05-06T02:55:43.687Z,5.26
2023-05-06T02:58:11.611Z,5.17
2023-05-06T03:00:39.267Z,5.24
2023-05-06T03:03:07.346Z,5.34
2023-05-06T03:05:35.204Z,5.38
2023-05-06T03:08:03.208Z,5.50
2023-05-06T03:10:31.972Z,5.61
2023-05-06T03:13:02.022Z,5.56
2023-05-06T03:15:30.474Z,5.63
2023-05-06T03:17:58.451Z,5.59
2023-05-06T03:20:28.877Z,5.78
2023-05-06T03:22:59.650Z,5.86
2023-05-06T03:25:27.752Z,5.90
2023-05-06T03:27:56.921Z,6.00
2023-05-06T03:30:25.120Z,6.10
2023-05-06T03:32:57.176Z,6.12
2023-05-06T03:35:30.891Z,6.06
2023-05-06T03:38:00.785Z,6.17
2023-05-06T03:40:36.470Z,6.31
2023-05-06T03:43:04.972Z,6.25
2023-05-06T03:45:33.704Z,6.49
2023-05-06T03:48:04.236Z,6.54
2023-05-06T03:50:34.202Z,6.74
2023-05-06T03:53:02.216Z,6.71
2023-05-06T03:55:32.963Z,7.05
2023-05-06T03:58:02.005Z,7.13
2023-05-06T04:00:29.757Z,7.17
2023-05-06T04:02:57.901Z,7.13
2023-05-06T04:05:36.567Z,7.30
2023-05-06T04:08:05.371Z,7.32
2023-05-06T04:10:33.056Z,7.23
2023-05-06T04:13:07.714Z,7.39
2023-05-06T04:15:41.625Z,7.42
2023-05-06T04:18:18.999Z,7.41
2023-05-06T04:20:55.294Z,7.45
2023-05-06T04:23:23.432Z,7.41
2023-05-06T04:25:51.244Z,7.50
2023-05-06T04:28:21.849Z,7.46
2023-05-06T04:30:52.899Z,7.57
2023-05-06T04:33:24.361Z,7.45
2023-05-06T04:35:53.909Z,7.63
2023-05-06T04:38:25.764Z,7.73
2023-05-06T04:40:55.477Z,7.77
2023-05-06T04:43:23.703Z,7.83
2023-05-06T04:45:58.086Z,7.94
2023-05-06T04:48:31.037Z,7.97
2023-05-06T04:51:00.608Z,8.05
2023-05-06T04:53:29.173Z,8.03
2023-05-06T04:55:56.916Z,8.01
2023-05-06T04:58:25.043Z,8.20
2023-05-06T05:00:52.940Z,8.29
2023-05-06T05:03:21.093Z,8.40
2023-05-06T05:05:48.916Z,8.52
2023-05-06T05:08:20.293Z,8.80
2023-05-06T05:10:48.265Z,8.83
2023-05-06T05:13:21.604Z,9.05
2023-05-06T05:15:54.630Z,9.12
2023-05-06T05:18:24.394Z,8.96
2023-05-06T05:20:55.898Z,8.94
2023-05-06T05:23:24.136Z,9.03
2023-05-06T05:25:51.838Z,9.07
2023-05-06T05:28:19.933Z,9.00
2023-05-06T05:30:48.171Z,9.06
2023-05-06T05:33:16.279Z,9.25
2023-05-06T05:35:44.835Z,9.49
2023-05-06T05:38:14.394Z,9.60
2023-05-06T05:40:42.328Z,9.73
2023-05-06T05:43:10.633Z,9.85
2023-05-06T05:45:40.952Z,10.09
2023-05-06T05:48:11.034Z,10.09
2023-05-06T05:50:39.226Z,10.12
2023-05-06T05:53:07.698Z,10.30
2023-05-06T05:55:37.515Z,10.35
2023-05-06T05:58:06.636Z,10.25
2023-05-06T06:00:35.142Z,10.31
2023-05-06T06:03:11.528Z,10.64
2023-05-06T06:05:40.263Z,10.55
2023-05-06T06:08:08.779Z,10.70
2023-05-06T06:10:36.661Z,10.70
2023-05-06T06:13:11.219Z,10.83
2023-05-06T06:15:38.930Z,11.16
2023-05-06T06:18:08.800Z,11.34
2023-05-06T06:20:38.382Z,11.41
2023-05-06T06:23:06.339Z,11.64
2023-05-06T06:25:34.012Z,11.71
2023-05-06T06:28:01.979Z,11.88
2023-05-06T06:30:29.765Z,12.19
2023-05-06T06:32:58.984Z,12.38
2023-05-06T06:35:27.356Z,12.15
2023-05-06T06:37:55.507Z,12.34
2023-05-06T06:40:23.614Z,12.63
2023-05-06T06:42:51.691Z,12.75
2023-05-06T06:45:32.630Z,13.05
2023-05-06T06:48:00.728Z,13.16
2023-05-06T06:50:28.367Z,13.37
2023-05-06T06:52:56.363Z,13.50
2023-05-06T06:55:24.081Z,13.47
2023-05-06T06:57:52.098Z,13.58
2023-05-06T07:00:19.703Z,13.24
2023-05-06T07:02:48.697Z,13.38
2023-05-06T07:05:16.665Z,13.03
2023-05-06T07:07:44.618Z,12.89
2023-05-06T07:10:12.365Z,12.91
2023-05-06T07:12:40.332Z,12.81
2023-05-06T07:15:09.178Z,12.92
2023-05-06T07:17:37.477Z,12.92
2023-05-06T07:20:05.767Z,13.00
2023-05-06T07:22:33.779Z,13.10
2023-05-06T07:25:01.463Z,13.19
2023-05-06T07:27:30.886Z,13.17
2023-05-06T07:29:58.765Z,13.30
2023-05-06T07:32:26.963Z,13.75
2023-05-06T07:34:54.718Z,13.86
2023-05-06T07:37:22.707Z,13.78
2023-05-06T07:39:50.898Z,13.86
2023-05-06T07:42:18.795Z,14.23
2023-05-06T07:44:46.413Z,13.97
2023-05-06T07:47:26.216Z,14.22
2023-05-06T07:49:54.662Z,13.99
2023-05-06T07:52:23.569Z,14.15
2023-05-06T07:54:51.466Z,14.32
2023-05-06T07:57:19.356Z,14.66
2023-05-06T07:59:52.034Z,14.65
2023-05-06T08:02:20.073Z,14.75
2023-05-06T08:04:49.501Z,14.78
2023-05-06T08:07:19.141Z,14.56
2023-05-06T08:09:46.784Z,14.77
2023-05-06T08:12:15.887Z,14.77
2023-05-06T08:14:43.629Z,14.85
2023-05-06T08:17:13.238Z,14.97
2023-05-06T08:19:41.036Z,14.76
2023-05-06T08:22:09.014Z,14.80
2023-05-06T08:24:36.738Z,14.62
2023-05-06T08:27:05.015Z,14.15
2023-05-06T08:29:32.701Z,13.88
2023-05-06T08:32:01.580Z,13.83
2023-05-06T08:34:29.388Z,13.78
2023-05-06T08:36:57.337Z,13.77
2023-05-06T08:39:25.100Z,13.89
2023-05-06T08:41:54.434Z,13.78
2023-05-06T08:44:24.826Z,14.02
2023-05-06T08:46:53.018Z,13.91
2023-05-06T08:49:21.157Z,13.72
2023-05-06T08:51:52.474Z,13.64
2023-05-06T08:54:20.180Z,13.68
2023-05-06T08:56:53.995Z,13.75
2023-05-06T08:59:25.974Z,13.74
2023-05-06T09:01:54.016Z,13.56
2023-05-06T09:04:22.226Z,13.69
2023-05-06T09:06:50.406Z,13.55
2023-05-06T09:09:18.096Z,13.78
2023-05-06T09:11:46.071Z,13.64
2023-05-06T09:14:17.910Z,13.62
2023-05-06T09:16:49.523Z,13.67
2023-05-06T09:19:19.848Z,13.74
2023-05-06T09:21:50.373Z,13.74
2023-05-06T09:24:18.434Z,13.97
2023-05-06T09:26:47.361Z,13.96
2023-05-06T09:29:15.193Z,14.21
2023-05-06T09:31:47.792Z,14.32
2023-05-06T09:34:17.942Z,14.00
2023-05-06T09:36:46.007Z,14.15
2023-05-06T09:39:13.759Z,13.97
2023-05-06T09:41:42.566Z,14.03
2023-05-06T09:44:11.556Z,14.19
2023-05-06T09:46:41.356Z,14.23
2023-05-06T09:49:10.264Z,14.26
2023-05-06T09:51:38.921Z,14.20
2023-05-06T09:54:07.598Z,14.25
2023-05-06T09:56:36.793Z,13.97
2023-05-06T09:59:05.920Z,13.98
2023-05-06T10:01:37.215Z,14.31
2023-05-06T10:04:11.112Z,14.21
2023-05-06T10:06:43.026Z,14.45
2023-05-06T10:09:11.499Z,14.47
2023-05-06T10:11:40.549Z,14.75
2023-05-06T10:14:09.270Z,14.80
2023-05-06T10:16:40.462Z,14.84
2023-05-06T10:19:09.393Z,14.75
2023-05-06T10:21:45.231Z,14.81
2023-05-06T10:24:17.270Z,14.87
2023-05-06T10:26:48.900Z,14.82
2023-05-06T10:29:17.560Z,14.30
2023-05-06T10:31:52.591Z,14.34
2023-05-06T10:34:22.773Z,14.47
2023-05-06T10:36:57.991Z,14.12
2023-05-06T10:39:26.590Z,13.83
2023-05-06T10:41:54.714Z,13.99
2023-05-06T10:44:58.191Z,14.03
2023-05-06T10:47:27.023Z,13.89
2023-05-06T10:50:20.607Z,13.54
2023-05-06T10:52:55.420Z,13.43
2023-05-06T10:55:33.244Z,13.26
2023-05-06T10:58:04.364Z,13.30
2023-05-06T11:00:33.516Z,13.37
2023-05-06T11:03:11.118Z,13.41
2023-05-06T11:05:50.145Z,13.37
2023-05-06T11:08:26.108Z,13.30
2023-05-06T11:10:54.826Z,13.31
2023-05-06T11:13:26.657Z,13.30
2023-05-06T11:15:56.250Z,13.29
2023-05-06T11:18:27.937Z,13.05
2023-05-06T11:21:03.783Z,12.94
2023-05-06T11:23:46.997Z,12.88
2023-05-06T11:26:15.377Z,13.06
2023-05-06T11:28:45.409Z,12.95
2023-05-06T11:31:14.693Z,12.94
2023-05-06T11:33:55.153Z,13.08
2023-05-06T11:36:22.953Z,13.04
2023-05-06T11:38:52.940Z,13.13
2023-05-06T11:41:23.085Z,13.02
2023-05-06T11:43:52.696Z,13.01
2023-05-06T11:46:22.264Z,12.84
2023-05-06T11:48:50.849Z,12.90
2023-05-06T11:51:25.051Z,12.99
2023-05-06T11:54:15.619Z,12.97
2023-05-06T11:56:48.282Z,12.92
2023-05-06T11:59:18.523Z,12.89
2023-05-06T12:01:46.881Z,12.85
2023-05-06T12:04:14.908Z,12.50
2023-05-06T12:06:42.704Z,12.44
2023-05-06T12:09:13.598Z,12.32
2023-05-06T12:11:44.303Z,12.38
2023-05-06T12:14:13.307Z,12.33
2023-05-06T12:16:42.336Z,12.18
2023-05-06T12:19:10.965Z,12.26
2023-05-06T12:21:39.324Z,12.29
2023-05-06T12:24:07.582Z,12.24
2023-05-06T12:26:49.431Z,12.14
2023-05-06T12:29:18.102Z,11.89
2023-05-06T12:31:47.423Z,11.80
2023-05-06T12:34:17.920Z,11.83
2023-05-06T12:36:48.794Z,11.90
2023-05-06T12:39:17.635Z,11.87
2023-05-06T12:41:46.479Z,11.95
2023-05-06T12:44:38.339Z,11.84
2023-05-06T12:47:10.520Z,11.78
2023-05-06T12:49:47.225Z,11.73
2023-05-06T12:52:15.986Z,11.75
2023-05-06T12:54:44.382Z,11.64
2023-05-06T12:57:12.104Z,11.58
2023-05-06T12:59:40.968Z,11.16
2023-05-06T13:02:08.690Z,10.79
2023-05-06T13:04:36.698Z,10.32
2023-05-06T13:07:04.426Z,10.20
2023-05-06T13:09:32.785Z,10.09
2023-05-06T13:12:01.295Z,9.75
2023-05-06T13:14:29.287Z,9.62
2023-05-06T13:17:00.419Z,9.48
2023-05-06T13:19:32.945Z,9.27
2023-05-06T13:22:01.757Z,9.34
2023-05-06T13:24:30.805Z,9.21
2023-05-06T13:27:00.959Z,9.07
2023-05-06T13:29:29.823Z,9.16
2023-05-06T13:31:57.833Z,9.18
2023-05-06T13:34:26.140Z,9.10
2023-05-06T13:36:54.882Z,8.84
2023-05-06T13:39:23.504Z,8.85
2023-05-06T13:41:51.751Z,8.70
2023-05-06T13:44:20.742Z,8.80
2023-05-06T13:46:48.944Z,8.71
2023-05-06T13:49:17.044Z,8.71
2023-05-06T13:51:44.801Z,8.71
2023-05-06T13:54:12.792Z,8.58
2023-05-06T13:56:40.522Z,8.60
2023-05-06T13:59:10.064Z,8.62
2023-05-06T14:01:38.452Z,8.43
2023-05-06T14:04:06.533Z,8.41
2023-05-06T14:06:34.189Z,8.40
2023-05-06T14:09:02.122Z,8.37
2023-05-06T14:11:29.891Z,8.21
2023-05-06T14:13:57.913Z,8.15
2023-05-06T14:16:25.604Z,8.04
2023-05-06T14:18:53.669Z,8.04
2023-05-06T14:21:21.995Z,8.02
2023-05-06T14:23:49.945Z,7.91
2023-05-06T14:26:17.807Z,7.86
2023-05-06T14:28:45.774Z,7.89
2023-05-06T14:31:13.539Z,7.86
2023-05-06T14:33:41.603Z,7.81
2023-05-06T14:36:09.453Z,7.81
2023-05-06T14:38:37.519Z,7.73
2023-05-06T14:41:05.189Z,7.72
2023-05-06T14:43:33.169Z,7.70
2023-05-06T14:46:01.073Z,7.67
2023-05-06T14:48:29.097Z,7.75
2023-05-06T14:50:56.728Z,7.73
2023-05-06T14:53:24.670Z,7.63
2023-05-06T14:55:52.324Z,7.59
2023-05-06T14:58:20.257Z,7.53
2023-05-06T15:00:47.970Z,7.71
2023-05-06T15:03:15.965Z,7.61
2023-05-06T15:05:43.890Z,7.56
2023-05-06T15:08:11.819Z,7.45
2023-05-06T15:10:40.773Z,7.49
2023-05-06T15:13:09.033Z,7.52
2023-05-06T15:15:36.814Z,7.55
2023-05-06T15:18:05.039Z,7.51
2023-05-06T15:20:32.823Z,7.44
2023-05-06T15:23:00.819Z,7.50
2023-05-06T15:25:35.701Z,7.55
2023-05-06T15:28:05.613Z,7.54
2023-05-06T15:30:33.432Z,7.42
2023-05-06T15:33:02.853Z,7.45
2023-05-06T15:35:31.802Z,7.45
2023-05-06T15:38:00.158Z,7.30
2023-05-06T15:40:28.274Z,7.22
2023-05-06T15:42:56.828Z,7.21
2023-05-06T15:45:24.663Z,7.34
2023-05-06T15:47:54.146Z,7.29
2023-05-06T15:50:32.954Z,7.26
2023-05-06T15:53:02.860Z,7.28
2023-05-06T15:55:35.252Z,7.22
2023-05-06T15:58:11.671Z,7.21
2023-05-06T16:00:39.415Z,7.12
2023-05-06T16:03:10.886Z,7.16
2023-05-06T16:05:40.069Z,7.15
2023-05-06T16:08:08.200Z,7.13
2023-05-06T16:10:35.926Z,7.19
2023-05-06T16:13:03.903Z,7.11
2023-05-06T16:15:31.596Z,7.16
2023-05-06T16:17:59.719Z,7.09
2023-05-06T16:20:27.461Z,7.27
2023-05-06T16:22:55.438Z,7.24
2023-05-06T16:25:23.626Z,7.21
2023-05-06T16:27:51.786Z,7.26
2023-05-06T16:30:19.460Z,7.20
2023-05-06T16:32:47.818Z,7.23
2023-05-06T16:35:17.701Z,7.18
2023-05-06T16:37:46.182Z,7.17
2023-05-06T16:40:18.472Z,7.09
2023-05-06T16:42:47.128Z,7.12
2023-05-06T16:45:14.897Z,7.09
2023-05-06T16:47:44.607Z,7.12
2023-05-06T16:50:13.068Z,7.07
2023-05-06T16:52:41.522Z,7.00
2023-05-06T16:55:09.628Z,7.05
2023-05-06T16:57:37.674Z,6.98
2023-05-06T17:00:08.399Z,7.03
2023-05-06T17:02:36.547Z,7.03
2023-05-06T17:05:04.563Z,7.00
2023-05-06T17:07:32.529Z,7.00
2023-05-06T17:10:00.688Z,6.92
2023-05-06T17:12:28.768Z,6.95
2023-05-06T17:14:56.601Z,7.09
2023-05-06T17:17:28.520Z,6.97
2023-05-06T17:19:57.590Z,6.89
2023-05-06T17:22:26.477Z,6.94
2023-05-06T17:24:54.399Z,6.93
2023-05-06T17:27:22.414Z,6.93
2023-05-06T17:29:50.336Z,7.00
2023-05-06T17:32:19.887Z,7.01
2023-05-06T17:34:47.714Z,6.92
2023-05-06T17:37:15.984Z,6.83
2023-05-06T17:39:43.752Z,6.87
2023-05-06T17:42:11.786Z,6.85
2023-05-06T17:44:40.269Z,6.88
2023-05-06T17:47:08.812Z,6.81
2023-05-06T17:49:36.669Z,6.80
2023-05-06T17:52:04.868Z,6.74
2023-05-06T17:54:32.683Z,6.70
2023-05-06T17:57:03.385Z,6.72
2023-05-06T17:59:31.216Z,6.72
2023-05-06T18:02:00.395Z,6.71
2023-05-06T18:04:28.154Z,6.66
2023-05-06T18:06:57.094Z,6.65
2023-05-06T18:09:24.698Z,6.70
2023-05-06T18:11:52.715Z,6.70
2023-05-06T18:14:20.571Z,6.66
2023-05-06T18:16:48.509Z,6.69
2023-05-06T18:19:16.148Z,6.76
2023-05-06T18:21:45.946Z,6.67
2023-05-06T18:24:16.316Z,6.70
2023-05-06T18:26:46.059Z,6.73
2023-05-06T18:29:14.279Z,6.67
2023-05-06T18:31:42.614Z,6.68
2023-05-06T18:34:10.569Z,6.70
2023-05-06T18:36:38.875Z,6.72
2023-05-06T18:39:07.333Z,6.69
2023-05-06T18:41:35.702Z,6.70
2023-05-06T18:44:04.632Z,6.75
2023-05-06T18:46:32.827Z,6.76
2023-05-06T18:49:01.071Z,6.78
2023-05-06T18:51:29.108Z,6.69
2023-05-06T18:53:56.797Z,6.64
2023-05-06T18:56:24.713Z,6.59
2023-05-06T18:58:52.867Z,6.60
2023-05-06T19:01:21.168Z,6.58
2023-05-06T19:03:49.016Z,6.59
2023-05-06T19:06:17.104Z,6.57
2023-05-06T19:08:44.780Z,6.57
2023-05-06T19:11:16.942Z,6.59
2023-05-06T19:13:46.649Z,6.55
2023-05-06T19:16:14.914Z,6.52
2023-05-06T19:18:42.707Z,6.58
2023-05-06T19:21:11.878Z,6.51
2023-05-06T19:23:39.709Z,6.52
2023-05-06T19:26:10.962Z,6.59
2023-05-06T19:28:40.273Z,6.52
2023-05-06T19:31:10.296Z,6.65
2023-05-06T19:33:42.533Z,6.59
2023-05-06T19:36:11.070Z,6.48
2023-05-06T19:38:38.838Z,6.51
2023-05-06T19:41:08.421Z,6.44
2023-05-06T19:43:42.159Z,6.51
2023-05-06T19:46:11.022Z,6.47
2023-05-06T19:48:41.541Z,6.46
2023-05-06T19:51:09.575Z,6.45
2023-05-06T19:53:37.458Z,6.47
2023-05-06T19:56:12.664Z,6.49
2023-05-06T19:58:41.522Z,6.45
2023-05-06T20:01:09.941Z,6.39
2023-05-06T20:03:38.172Z,6.39
2023-05-06T20:06:06.931Z,6.45
2023-05-06T20:08:35.569Z,6.49
2023-05-06T20:11:03.752Z,6.41
2023-05-06T20:13:31.679Z,6.34
2023-05-06T20:15:59.814Z,6.41
2023-05-06T20:18:27.565Z,6.42
2023-05-06T20:20:56.307Z,6.39
2023-05-06T20:23:23.925Z,6.46
2023-05-06T20:25:52.011Z,6.39
2023-05-06T20:28:19.864Z,6.36
2023-05-06T20:30:48.898Z,6.44
2023-05-06T20:33:16.689Z,6.39
2023-05-06T20:35:44.662Z,6.40
2023-05-06T20:38:12.447Z,6.30
2023-05-06T20:40:40.681Z,6.33
2023-05-06T20:43:08.409Z,6.40
2023-05-06T20:45:36.406Z,6.39
2023-05-06T20:48:04.276Z,6.39
2023-05-06T20:50:32.286Z,6.37
2023-05-06T20:53:01.668Z,6.31
2023-05-06T20:55:29.640Z,6.46
2023-05-06T20:57:57.342Z,6.32
2023-05-06T21:00:25.466Z,6.33
2023-05-06T21:02:53.297Z,6.31
2023-05-06T21:05:21.389Z,6.22
2023-05-06T21:07:49.036Z,6.26
2023-05-06T21:10:17.063Z,6.22
2023-05-06T21:12:48.704Z,6.23
2023-05-06T21:15:17.340Z,6.18
2023-05-06T21:17:45.247Z,6.22
2023-05-06T21:20:13.561Z,6.15
2023-05-06T21:22:41.165Z,6.10
2023-05-06T21:25:09.826Z,6.22
2023-05-06T21:27:37.668Z,6.12
2023-05-06T21:30:06.492Z,6.18
2023-05-06T21:32:34.249Z,6.19
2023-05-06T21:35:03.300Z,6.13
2023-05-06T21:37:31.011Z,6.10
2023-05-06T21:40:00.108Z,6.09
2023-05-06T21:42:28.335Z,6.15
2023-05-06T21:44:56.348Z,6.21
2023-05-06T21:47:24.095Z,6.15
2023-05-06T21:49:52.044Z,6.05
2023-05-06T21:52:19.706Z,6.07
2023-05-06T21:54:47.787Z,6.09
2023-05-06T21:57:15.524Z,6.05
2023-05-06T21:59:43.449Z,6.09
2023-05-06T22:02:11.158Z,6.02
2023-05-06T22:04:39.086Z,6.02
2023-05-06T22:07:07.050Z,6.03
2023-05-06T22:09:34.944Z,6.01
2023-05-06T22:12:06.597Z,5.97
2023-05-06T22:14:40.888Z,5.90
2023-05-06T22:17:10.513Z,5.89
2023-05-06T22:19:39.046Z,5.91
2023-05-06T22:22:07.023Z,5.81
2023-05-06T22:24:35.123Z,5.85
2023-05-06T22:27:03.397Z,5.88
2023-05-06T22:29:31.398Z,5.81
2023-05-06T22:31:59.106Z,5.86
2023-05-06T22:34:27.293Z,5.72
2023-05-06T22:36:54.869Z,5.73
2023-05-06T22:39:22.904Z,5.74
2023-05-06T22:41:50.962Z,5.76
2023-05-06T22:44:18.920Z,5.75
2023-05-06T22:46:46.804Z,5.79
2023-05-06T22:49:15.990Z,5.65
2023-05-06T22:51:43.725Z,5.67
2023-05-06T22:54:11.821Z,5.76
2023-05-06T22:56:39.463Z,5.63
2023-05-06T22:59:07.462Z,5.71
2023-05-06T23:01:35.198Z,5.57
2023-05-06T23:04:03.454Z,5.69
2023-05-06T23:06:31.754Z,5.80
2023-05-06T23:08:59.814Z,5.65
2023-05-06T23:11:27.453Z,5.74
2023-05-06T23:13:55.372Z,5.91
2023-05-06T23:16:23.561Z,5.80
2023-05-06T23:18:51.551Z,5.88
2023-05-06T23:21:19.223Z,5.84
2023-05-06T23:23:47.121Z,5.77
2023-05-06T23:26:15.013Z,5.79
2023-05-06T23:28:42.958Z,5.74
2023-05-06T23:31:10.716Z,5.67
2023-05-06T23:33:38.696Z,5.68
2023-05-06T23:36:06.676Z,5.66
2023-05-06T23:38:34.585Z,5.69
2023-05-06T23:41:02.293Z,5.70
2023-05-06T23:43:30.768Z,5.70
2023-05-06T23:45:58.503Z,5.76
2023-05-06T23:48:26.458Z,5.75
2023-05-06T23:50:54.581Z,5.59
2023-05-06T23:53:22.806Z,5.62
2023-05-06T23:55:50.637Z,5.57
2023-05-06T23:58:18.582Z,5.58
